createdAt,value
2019-05-22T00:04:18.457Z,99.8795
2019-05-22T00:44:59.430Z,99.9710
2019-05-22T01:23:38.538Z,99.9985
2019-05-22T01:33:48.433Z,99.9802
2019-05-22T02:02:18.465Z,99.9893
2019-05-22T02:10:28.438Z,100.0000
2019-05-22T02:38:57.758Z,100.0000
2019-05-22T02:49:08.503Z,100.0000
2019-05-22T03:07:28.461Z,100.0000
2019-05-22T03:17:40.292Z,100.0000
2019-05-22T03:56:20.669Z,100.0000
2019-05-22T03:58:23.430Z,100.0000
2019-05-22T04:02:28.431Z,100.0000
2019-05-22T04:10:41.055Z,100.0000
2019-05-22T04:49:19.502Z,99.4446
2019-05-22T04:57:28.488Z,99.2294
2019-05-22T05:11:48.720Z,98.5306
2019-05-22T05:19:58.528Z,98.1949
2019-05-22T06:00:44.487Z,82.7634
2019-05-22T06:04:49.592Z,78.2498
2019-05-22T06:12:58.472Z,75.2850
2019-05-22T06:17:08.560Z,75.1965
2019-05-22T06:27:18.445Z,84.1184
2019-05-22T06:35:27.771Z,74.0429
2019-05-22T06:45:38.570Z,67.3671
2019-05-22T07:14:08.491Z,79.6323
2019-05-22T07:22:18.823Z,71.1162
2019-05-22T08:11:08.506Z,58.4649
2019-05-22T08:29:29.503Z,53.2967
2019-05-22T08:33:36.021Z,50.6172
2019-05-22T08:39:43.446Z,48.9784
2019-05-22T08:44:13.604Z,49.2760
2019-05-22T08:48:13.916Z,46.5766
2019-05-22T09:19:54.995Z,52.3888
2019-05-22T09:39:32.934Z,45.6413
2019-05-22T09:48:09.633Z,46.6362
2019-05-22T10:00:09.163Z,44.7623
2019-05-22T10:03:01.376Z,40.4654
2019-05-22T10:08:28.025Z,42.5330
2019-05-22T10:19:23.264Z,40.0977
2019-05-22T10:37:23.587Z,36.7422
2019-05-22T10:43:00.726Z,33.6110
2019-05-22T10:46:02.375Z,35.6756
2019-05-22T11:00:20.908Z,37.1618
2019-05-22T11:03:04.813Z,40.3311
2019-05-22T11:06:05.696Z,34.6410
2019-05-22T11:09:00.567Z,39.7147
2019-05-22T11:11:45.480Z,36.5316
2019-05-22T11:14:34.974Z,36.3622
2019-05-22T11:17:18.964Z,36.9619
2019-05-22T11:33:58.808Z,32.3964
2019-05-22T11:42:05.754Z,36.7590
2019-05-22T11:55:45.391Z,41.7426
2019-05-22T12:01:07.447Z,46.4759
2019-05-22T12:11:56.766Z,41.8067
2019-05-22T12:20:03.735Z,46.3844
2019-05-22T12:25:28.835Z,42.1225
2019-05-22T12:28:27.158Z,42.2095
2019-05-22T12:33:54.477Z,40.9857
2019-05-22T12:42:03.273Z,44.1856
2019-05-22T12:44:46.844Z,43.3951
2019-05-22T12:47:56.270Z,38.8800
2019-05-22T12:53:22.862Z,38.6969
2019-05-22T12:58:52.933Z,41.3428
2019-05-22T13:07:32.548Z,39.4034
2019-05-22T13:16:13.699Z,40.7477
2019-05-22T13:19:00.376Z,43.4180
2019-05-22T13:37:56.819Z,47.4739
2019-05-22T13:43:45.718Z,40.2670
2019-05-22T13:49:45.141Z,44.1413
2019-05-22T14:01:27.864Z,48.4581
2019-05-22T14:04:11.850Z,47.0253
2019-05-22T14:06:58.486Z,47.5914
2019-05-22T14:09:57.153Z,47.0710
2019-05-22T14:12:39.759Z,49.1539
2019-05-22T14:15:25.813Z,45.0340
2019-05-22T14:18:22.661Z,41.6999
2019-05-22T14:21:12.697Z,48.5496
2019-05-22T14:23:56.774Z,45.6748
2019-05-22T14:26:39.787Z,47.8721
2019-05-22T14:29:22.850Z,47.7943
2019-05-22T14:35:06.039Z,43.6423
2019-05-22T14:37:49.802Z,43.8834
2019-05-22T14:40:31.778Z,42.9175
2019-05-22T14:43:13.782Z,45.7618
2019-05-22T14:46:02.167Z,43.5172
2019-05-22T14:48:46.762Z,43.9109
2019-05-22T14:51:29.472Z,50.2709
2019-05-22T14:54:12.815Z,48.2200
2019-05-22T14:56:57.680Z,52.2972
2019-05-22T14:59:40.792Z,53.3593
2019-05-22T15:02:24.013Z,49.8909
2019-05-22T15:05:12.792Z,49.6071
2019-05-22T15:07:56.653Z,47.3686
2019-05-22T15:10:40.314Z,48.6305
2019-05-22T15:13:23.868Z,47.6890
2019-05-22T15:16:07.821Z,49.6254
2019-05-22T15:18:50.194Z,52.9946
2019-05-22T15:21:33.942Z,53.8674
2019-05-22T15:28:46.418Z,51.6106
2019-05-22T15:31:29.958Z,49.4835
2019-05-22T15:34:13.971Z,57.3938
2019-05-22T15:37:02.934Z,53.7179
2019-05-22T15:39:47.510Z,53.5851
2019-05-22T15:42:57.241Z,51.5709
2019-05-22T15:49:12.406Z,54.5220
2019-05-22T15:52:02.674Z,54.3114
2019-05-22T15:54:45.886Z,49.6437
2019-05-22T15:57:30.108Z,56.8902
2019-05-22T16:00:19.344Z,50.8186
2019-05-22T16:03:26.916Z,51.4748
2019-05-22T16:06:10.867Z,49.7658
2019-05-22T16:08:55.008Z,47.1992
2019-05-22T16:11:38.966Z,47.7790
2019-05-22T16:14:22.882Z,47.8447
2019-05-22T16:17:07.751Z,43.6912
2019-05-22T16:19:52.327Z,46.3752
2019-05-22T16:22:36.182Z,46.8559
2019-05-22T16:25:20.778Z,47.4495
2019-05-22T16:28:06.308Z,47.4861
2019-05-22T16:31:00.495Z,44.1947
2019-05-22T16:33:55.203Z,42.4247
2019-05-22T16:36:39.958Z,37.5021
2019-05-22T16:39:29.226Z,45.9083
2019-05-22T16:42:12.040Z,39.9161
2019-05-22T16:44:57.416Z,41.9608
2019-05-22T16:51:23.134Z,41.9013
2019-05-22T16:54:06.760Z,40.0656
2019-05-22T16:56:48.817Z,37.9522
2019-05-22T16:59:36.609Z,38.4009
2019-05-22T17:02:19.955Z,40.6989
2019-05-22T17:05:03.920Z,39.5544
2019-05-22T17:07:47.798Z,36.2737
2019-05-22T17:10:39.890Z,43.7476
2019-05-22T17:13:31.504Z,39.1150
2019-05-22T17:16:13.895Z,36.0098
2019-05-22T17:19:27.772Z,36.4706
2019-05-22T17:22:12.851Z,38.5321
2019-05-22T17:24:55.930Z,47.3594
2019-05-22T17:31:37.299Z,40.3647
2019-05-22T17:34:20.804Z,42.8305
2019-05-22T17:37:14.911Z,44.4877
2019-05-22T17:39:59.756Z,42.2324
2019-05-22T17:42:42.267Z,41.3291
2019-05-22T17:45:28.714Z,47.8355
2019-05-22T17:48:11.500Z,52.3888
2019-05-22T17:50:54.751Z,48.2734
2019-05-22T17:53:37.852Z,45.0736
2019-05-22T17:56:50.957Z,51.6060
2019-05-22T17:59:53.031Z,47.2251
2019-05-22T18:02:47.468Z,51.8959
2019-05-22T18:05:32.506Z,49.7108
2019-05-22T18:08:22.256Z,51.5831
2019-05-22T18:11:07.437Z,57.2335
2019-05-22T18:13:49.941Z,54.2351
2019-05-22T18:16:34.118Z,60.3769
2019-05-22T18:19:25.888Z,70.0648
2019-05-22T18:22:10.729Z,72.6635
2019-05-22T18:24:54.648Z,76.2325
2019-05-22T18:27:38.999Z,75.8007
2019-05-22T18:30:23.374Z,80.2960
2019-05-22T18:33:07.286Z,79.0890
2019-05-22T18:35:51.436Z,71.7037
2019-05-22T18:38:34.964Z,76.2493
2019-05-22T18:41:18.846Z,84.1001
2019-05-22T18:44:01.968Z,83.4012
2019-05-22T18:46:45.802Z,84.9577
2019-05-22T18:49:28.859Z,86.0548
2019-05-22T18:52:11.856Z,86.3355
2019-05-22T18:54:54.823Z,87.3549
2019-05-22T18:57:37.826Z,86.7567
2019-05-22T19:00:20.862Z,87.5288
2019-05-22T19:03:03.814Z,87.7394
2019-05-22T19:05:46.795Z,88.2017
2019-05-22T19:08:28.781Z,89.3507
2019-05-22T19:11:11.892Z,89.2729
2019-05-22T19:13:55.889Z,90.0938
2019-05-22T19:16:39.833Z,90.6706
2019-05-22T19:19:25.867Z,87.2496
2019-05-22T19:22:14.361Z,82.5071
2019-05-22T19:24:57.956Z,80.7492
2019-05-22T19:27:44.628Z,81.7761
2019-05-22T19:30:27.994Z,80.1678
2019-05-22T19:33:14.883Z,78.2193
2019-05-22T19:36:00.642Z,78.4527
2019-05-22T19:38:44.741Z,75.4345
2019-05-22T19:41:27.830Z,75.9380
2019-05-22T19:44:12.640Z,78.1735
2019-05-22T19:46:55.559Z,75.1507
2019-05-22T19:49:38.478Z,79.2157
2019-05-22T19:52:22.779Z,75.5947
2019-05-22T19:55:09.676Z,72.4773
2019-05-22T19:57:52.539Z,76.1990
2019-05-22T20:00:35.873Z,75.7870
2019-05-22T20:03:20.265Z,77.2381
2019-05-22T20:06:03.826Z,76.4096
2019-05-22T20:08:48.048Z,76.0494
2019-05-22T20:11:31.856Z,76.9451
2019-05-22T20:14:15.219Z,81.4588
2019-05-22T20:16:58.833Z,81.7929
2019-05-22T20:19:41.919Z,82.2553
2019-05-22T20:22:25.842Z,76.8673
2019-05-22T20:25:09.034Z,79.1058
2019-05-22T20:27:53.022Z,84.4129
2019-05-22T20:30:36.553Z,81.1215
2019-05-22T20:33:19.564Z,82.8611
2019-05-22T20:36:02.560Z,82.5391
2019-05-22T20:38:45.577Z,84.0833
2019-05-22T20:41:28.535Z,84.3565
2019-05-22T20:44:12.384Z,86.6453
2019-05-22T20:46:55.657Z,84.2527
2019-05-22T20:49:38.591Z,87.2236
2019-05-22T20:52:21.827Z,85.9693
2019-05-22T20:55:04.491Z,83.0945
2019-05-22T20:57:48.494Z,87.2007
2019-05-22T21:00:31.658Z,87.4022
2019-05-22T21:03:15.454Z,88.1376
2019-05-22T21:06:02.282Z,88.8884
2019-05-22T21:08:46.973Z,88.0385
2019-05-22T21:11:32.445Z,88.8212
2019-05-22T21:14:18.319Z,89.1554
2019-05-22T21:17:03.621Z,88.3726
2019-05-22T21:19:47.795Z,89.7002
2019-05-22T21:22:31.262Z,90.3853
2019-05-22T21:25:15.413Z,91.3146
2019-05-22T21:27:59.044Z,91.4565
2019-05-22T21:30:42.436Z,89.7963
2019-05-22T21:33:26.418Z,90.6020
2019-05-22T21:36:09.484Z,88.7282
2019-05-22T21:38:52.591Z,90.1106
2019-05-22T21:41:35.482Z,88.1285
2019-05-22T21:44:18.787Z,86.6606
2019-05-22T21:47:01.570Z,87.4647
2019-05-22T21:49:44.608Z,88.7968
2019-05-22T21:52:27.516Z,89.5888
2019-05-22T21:55:10.679Z,91.1955
2019-05-22T21:57:53.470Z,89.6178
2019-05-22T22:00:36.587Z,89.7734
2019-05-22T22:03:19.887Z,89.6086
2019-05-22T22:06:03.641Z,90.9621
2019-05-22T22:08:46.466Z,89.5476
2019-05-22T22:11:30.258Z,89.6254
2019-05-22T22:14:13.674Z,91.7723
2019-05-22T22:16:57.126Z,91.8410
2019-05-22T22:19:41.407Z,91.0719
2019-05-22T22:22:25.655Z,91.0079
2019-05-22T22:25:10.305Z,91.5755
2019-05-22T22:27:53.451Z,91.6396
2019-05-22T22:30:37.710Z,90.7332
2019-05-22T22:33:21.733Z,91.2840
2019-05-22T22:36:04.270Z,91.8471
2019-05-22T22:38:48.733Z,91.9142
2019-05-22T22:41:33.345Z,91.8837
2019-05-22T22:44:17.202Z,91.3832
2019-05-22T22:47:01.268Z,91.3970
2019-05-22T22:49:45.790Z,91.6640
2019-05-22T22:52:29.274Z,91.9341
2019-05-22T22:55:12.542Z,92.8801
2019-05-22T22:57:55.266Z,93.2296
2019-05-22T23:00:40.471Z,93.6950
2019-05-22T23:03:24.867Z,93.8003
2019-05-22T23:06:09.607Z,93.8247
2019-05-22T23:08:53.721Z,94.5510
2019-05-22T23:15:07.162Z,95.2758
2019-05-22T23:17:51.409Z,95.2392
2019-05-22T23:20:36.899Z,94.5113
2019-05-22T23:23:22.004Z,94.4015
2019-05-22T23:26:06.501Z,94.1619
2019-05-22T23:28:55.077Z,94.3038
2019-05-22T23:31:39.494Z,93.5988
2019-05-22T23:34:22.198Z,92.9305
2019-05-22T23:37:06.242Z,93.3623
2019-05-22T23:39:50.273Z,93.0266
2019-05-22T23:42:33.776Z,93.1975
2019-05-22T23:45:16.604Z,92.8435
2019-05-22T23:47:59.517Z,92.5826
2019-05-22T23:50:42.524Z,92.6421
2019-05-22T23:53:25.761Z,92.8801
2019-05-22T23:56:10.090Z,92.9641
2019-05-22T23:58:54.735Z,92.9732
